Time;durP1;ratioP1;P1;durP2;ratioP2;P2;SDS_P1;SDS_P2;PMS_P1;PMS_P2;Temp;Humidity;BMP_temperature;BMP_pressure;BME280_temperature;BME280_humidity;BME280_pressure;Samples;Min_cycle;Max_cycle;Signal;HPM_P1;HPM_P2
2022/04/27 00:03:53;;;;;;;6.83;5.67;;;4.50;99.90;;;;;;8243150;28;20253;-66
2022/04/27 00:07:55;;;;;;;7.43;5.87;;;4.50;99.90;;;;;;8242202;28;20192;-67
2022/04/27 00:11:59;;;;;;;7.67;5.60;;;4.40;99.90;;;;;;8223377;28;20259;-66
2022/04/27 00:16:00;;;;;;;8.17;6.03;;;4.40;99.90;;;;;;8239766;28;20195;-67
2022/04/27 00:20:01;;;;;;;9.20;6.63;;;4.40;99.90;;;;;;8221847;28;20185;-66
2022/04/27 00:24:02;;;;;;;7.57;5.77;;;4.40;99.90;;;;;;8224308;28;20189;-67
2022/04/27 00:28:03;;;;;;;11.27;7.80;;;4.30;99.90;;;;;;8239785;28;20199;-66
2022/04/27 00:32:05;;;;;;;13.07;8.03;;;4.30;99.90;;;;;;8224164;28;20212;-66
2022/04/27 00:36:05;;;;;;;10.30;7.37;;;4.30;99.90;;;;;;8227414;28;20195;-66
2022/04/27 00:40:07;;;;;;;14.37;8.53;;;4.30;99.90;;;;;;8224378;28;20214;-67
2022/04/27 00:44:07;;;;;;;11.27;7.90;;;4.20;99.90;;;;;;8220934;28;20284;-66
2022/04/27 00:48:09;;;;;;;10.60;7.67;;;4.10;99.90;;;;;;8222577;28;20195;-66
2022/04/27 00:52:12;;;;;;;9.43;6.23;;;3.90;99.90;;;;;;8237234;28;20276;-67
2022/04/27 00:56:14;;;;;;;8.33;6.00;;;3.80;99.90;;;;;;8240425;28;20191;-65
2022/04/27 01:00:15;;;;;;;7.60;5.70;;;3.70;99.90;;;;;;8249195;28;20229;-66
2022/04/27 01:04:16;;;;;;;7.37;5.20;;;3.70;99.90;;;;;;8228965;28;20471;-66
2022/04/27 01:08:20;;;;;;;7.40;5.50;;;3.60;99.90;;;;;;8240344;28;20192;-65
2022/04/27 01:12:22;;;;;;;7.93;5.80;;;3.60;99.90;;;;;;8242170;28;20210;-65
2022/04/27 01:16:23;;;;;;;8.30;5.87;;;3.70;99.90;;;;;;8225604;28;20205;-66
2022/04/27 01:20:24;;;;;;;8.57;6.17;;;3.70;99.90;;;;;;8226059;28;20187;-66
2022/04/27 01:24:25;;;;;;;8.27;6.30;;;3.80;99.90;;;;;;8223658;28;20246;-65
2022/04/27 01:28:30;;;;;;;7.53;5.97;;;3.80;99.90;;;;;;8238511;28;20218;-66
2022/04/27 01:32:31;;;;;;;9.07;6.13;;;3.80;99.90;;;;;;8241057;28;20245;-65
2022/04/27 01:36:32;;;;;;;8.20;6.00;;;3.80;99.90;;;;;;8223417;28;20272;-67
2022/04/27 01:40:34;;;;;;;8.47;6.00;;;3.90;99.90;;;;;;8246668;28;20515;-65
2022/04/27 01:44:35;;;;;;;8.93;5.97;;;3.90;99.90;;;;;;8240093;28;20276;-65
2022/04/27 01:48:35;;;;;;;9.23;6.27;;;3.90;99.90;;;;;;8244123;28;20249;-65
2022/04/27 01:56:55;;;;;;;11.47;7.97;;;4.00;99.90;;;;;;8226553;28;20639;-65
2022/04/27 02:00:56;;;;;;;13.73;8.57;;;4.00;99.90;;;;;;8228914;28;20199;-65
2022/04/27 02:04:57;;;;;;;11.20;8.07;;;4.00;99.90;;;;;;8227524;28;20219;-65
2022/04/27 02:08:58;;;;;;;14.13;9.43;;;3.90;99.90;;;;;;8242223;28;20202;-66
2022/04/27 02:12:59;;;;;;;14.17;9.33;;;3.90;99.90;;;;;;8228661;28;20239;-66
2022/04/27 02:16:59;;;;;;;13.37;8.43;;;4.00;99.90;;;;;;8244104;28;20184;-65
2022/04/27 02:21:00;;;;;;;11.27;8.10;;;4.10;99.90;;;;;;8229886;28;20285;-65
2022/04/27 02:25:02;;;;;;;13.83;8.80;;;4.10;99.90;;;;;;8223061;28;20297;-66
2022/04/27 02:29:03;;;;;;;12.07;8.57;;;4.10;99.90;;;;;;8224251;28;20196;-65
2022/04/27 02:33:03;;;;;;;13.07;8.23;;;4.10;99.90;;;;;;8235902;28;20215;-66
2022/04/27 02:37:05;;;;;;;15.13;10.00;;;4.10;99.90;;;;;;8251851;28;20202;-65
2022/04/27 02:41:07;;;;;;;15.03;10.57;;;4.20;99.90;;;;;;8237749;28;20548;-65
2022/04/27 02:45:08;;;;;;;11.80;9.20;;;4.20;99.90;;;;;;8228303;28;20193;-65
2022/04/27 02:53:28;;;;;;;18.23;11.50;;;4.30;99.90;;;;;;8228184;28;20227;-65
2022/04/27 02:57:29;;;;;;;17.77;12.13;;;4.20;99.90;;;;;;8224879;28;20193;-65
2022/04/27 03:01:29;;;;;;;19.77;13.57;;;4.20;99.90;;;;;;8242208;28;20277;-65
2022/04/27 03:05:30;;;;;;;24.07;16.53;;;4.20;99.90;;;;;;8220885;28;20185;-64
2022/04/27 03:09:31;;;;;;;25.50;17.70;;;4.20;99.90;;;;;;8237439;28;20221;-65
2022/04/27 03:13:32;;;;;;;21.97;16.97;;;4.20;99.90;;;;;;8232875;28;20215;-65
2022/04/27 03:17:33;;;;;;;23.40;15.97;;;4.30;99.90;;;;;;8240185;28;20189;-65
2022/04/27 03:21:33;;;;;;;26.83;17.40;;;4.30;99.90;;;;;;8224745;28;20196;-65
2022/04/27 03:25:34;;;;;;;24.27;15.50;;;4.40;99.90;;;;;;8238085;28;20199;-65
2022/04/27 03:29:35;;;;;;;20.63;15.20;;;4.50;99.90;;;;;;8240086;28;20204;-65
2022/04/27 03:33:36;;;;;;;18.80;13.63;;;4.60;99.90;;;;;;8240083;28;20207;-65
2022/04/27 03:37:37;;;;;;;20.47;14.40;;;4.70;99.90;;;;;;8239097;28;20255;-66
2022/04/27 03:41:38;;;;;;;21.37;14.57;;;4.70;99.90;;;;;;8224094;28;20225;-65
2022/04/27 03:45:39;;;;;;;18.07;12.60;;;4.80;99.90;;;;;;8234102;28;20192;-66
2022/04/27 03:49:40;;;;;;;17.23;11.53;;;4.80;99.90;;;;;;8234244;28;20196;-65
2022/04/27 03:53:41;;;;;;;16.60;10.83;;;4.80;99.90;;;;;;8223203;28;20212;-65
2022/04/27 03:57:41;;;;;;;18.97;12.90;;;4.80;99.90;;;;;;8231268;28;20327;-65
2022/04/27 04:01:42;;;;;;;17.07;12.57;;;4.90;99.90;;;;;;8229663;28;20184;-65
2022/04/27 04:05:43;;;;;;;19.30;13.37;;;5.00;99.90;;;;;;8244322;28;20192;-65
2022/04/27 04:09:44;;;;;;;22.17;12.27;;;5.00;99.90;;;;;;8241025;28;20208;-65
2022/04/27 04:13:45;;;;;;;16.03;12.87;;;5.20;99.90;;;;;;8237155;28;20303;-66
2022/04/27 04:17:46;;;;;;;20.30;13.80;;;5.50;99.90;;;;;;8223910;28;20188;-65
2022/04/27 04:21:46;;;;;;;16.93;12.17;;;5.60;99.90;;;;;;8228877;28;20271;-66
2022/04/27 04:30:07;;;;;;;15.00;11.30;;;5.70;99.90;;;;;;8239830;28;20258;-65
2022/04/27 04:34:08;;;;;;;16.20;11.37;;;5.70;99.90;;;;;;8231760;28;20211;-67
2022/04/27 04:38:09;;;;;;;17.47;11.87;;;5.70;99.90;;;;;;8245355;28;20188;-65
2022/04/27 04:42:09;;;;;;;15.63;11.17;;;5.70;99.90;;;;;;8228607;28;20276;-65
2022/04/27 04:46:10;;;;;;;16.87;11.70;;;5.80;99.90;;;;;;8233854;28;20291;-65
2022/04/27 04:50:12;;;;;;;16.63;11.90;;;5.90;99.90;;;;;;8247821;28;20195;-65
2022/04/27 04:54:13;;;;;;;19.03;13.03;;;6.00;99.90;;;;;;8228444;28;20212;-65
2022/04/27 04:58:13;;;;;;;24.50;17.10;;;6.20;99.90;;;;;;8247091;28;20247;-66
2022/04/27 05:02:14;;;;;;;23.43;16.50;;;6.20;99.90;;;;;;8228645;28;20200;-67
2022/04/27 05:06:15;;;;;;;24.90;17.80;;;6.30;99.90;;;;;;8226468;28;20200;-66
2022/04/27 05:10:16;;;;;;;23.00;16.83;;;6.40;99.90;;;;;;8229524;28;20211;-66
2022/04/27 05:14:17;;;;;;;21.13;16.27;;;6.60;99.90;;;;;;8243278;28;20212;-66
2022/04/27 05:18:18;;;;;;;28.17;18.80;;;6.80;99.90;;;;;;8227540;28;20321;-66
2022/04/27 05:22:19;;;;;;;22.20;16.67;;;6.90;99.90;;;;;;8236433;28;20239;-66
2022/04/27 05:26:21;;;;;;;24.47;17.63;;;6.90;99.90;;;;;;8228760;28;20188;-66
2022/04/27 05:34:41;;;;;;;22.87;16.30;;;7.30;99.90;;;;;;8229182;28;20203;-66
2022/04/27 05:38:42;;;;;;;22.27;16.47;;;7.50;99.90;;;;;;8239889;28;20212;-66
2022/04/27 05:42:43;;;;;;;23.93;16.73;;;7.70;99.90;;;;;;8230295;28;20193;-66
2022/04/27 05:46:44;;;;;;;21.33;15.73;;;7.70;99.90;;;;;;8228317;28;20188;-65
2022/04/27 05:50:45;;;;;;;24.07;16.37;;;7.70;99.90;;;;;;8223859;28;20192;-66
2022/04/27 05:54:47;;;;;;;19.70;13.67;;;7.70;99.90;;;;;;8225891;28;20188;-66
2022/04/27 05:58:48;;;;;;;19.50;14.43;;;7.80;99.90;;;;;;8241296;28;20223;-67
2022/04/27 06:02:49;;;;;;;19.30;13.60;;;8.00;99.90;;;;;;8217524;28;20208;-67
2022/04/27 06:06:49;;;;;;;20.13;13.63;;;8.10;99.90;;;;;;8222751;28;20193;-67
2022/04/27 06:10:50;;;;;;;21.17;14.60;;;8.20;99.90;;;;;;8232972;28;20191;-66
2022/04/27 06:14:51;;;;;;;19.00;14.30;;;8.20;99.90;;;;;;8234362;28;20212;-65
2022/04/27 06:19:04;;;;;;;18.67;13.03;;;8.30;99.90;;;;;;8224159;28;20188;-66
2022/04/27 06:23:05;;;;;;;18.80;13.13;;;8.50;99.90;;;;;;8222996;28;20227;-66
2022/04/27 06:27:06;;;;;;;17.20;13.13;;;8.70;99.90;;;;;;8245601;28;20187;-66
2022/04/27 06:31:07;;;;;;;21.40;12.80;;;8.80;33.00;;;;;;8225487;28;20216;-68
2022/04/27 06:35:09;;;;;;;20.93;12.53;;;8.80;99.90;;;;;;8218349;28;20268;-68
2022/04/27 06:39:14;;;;;;;16.97;12.60;;;8.70;99.90;;;;;;8221207;28;20378;-68
2022/04/27 06:43:15;;;;;;;16.93;10.73;;;8.80;99.90;;;;;;8223342;28;20196;-67
2022/04/27 06:47:16;;;;;;;13.37;10.47;;;9.10;99.90;;;;;;8229550;28;20188;-67
2022/04/27 06:51:18;;;;;;;12.87;10.27;;;9.10;67.30;;;;;;8214862;28;20224;-64
2022/04/27 06:55:19;;;;;;;15.43;10.07;;;9.30;1.00;;;;;;8230843;28;20189;-65
2022/04/27 06:59:19;;;;;;;16.63;11.17;;;9.30;99.90;;;;;;8237049;28;20196;-64
2022/04/27 07:03:20;;;;;;;13.20;9.57;;;9.50;1.00;;;;;;8218835;28;20202;-64
2022/04/27 07:07:21;;;;;;;14.43;9.90;;;9.50;1.00;;;;;;8219510;28;20193;-65
2022/04/27 07:11:22;;;;;;;12.10;8.57;;;9.70;1.00;;;;;;8219050;28;20225;-64
2022/04/27 07:15:22;;;;;;;10.33;7.63;;;9.80;1.00;;;;;;8216657;28;20344;-64
2022/04/27 07:19:23;;;;;;;11.07;8.33;;;9.90;99.90;;;;;;8220256;28;20189;-64
2022/04/27 07:23:24;;;;;;;10.90;7.30;;;10.10;1.00;;;;;;8219256;28;20186;-65
2022/04/27 07:27:27;;;;;;;10.40;7.77;;;10.30;99.90;;;;;;8230174;28;20200;-67
2022/04/27 07:31:28;;;;;;;11.63;8.47;;;10.30;99.90;;;;;;8213308;28;20213;-68
2022/04/27 07:35:28;;;;;;;10.70;7.60;;;10.40;1.00;;;;;;8211726;28;20193;-65
2022/04/27 07:39:29;;;;;;;11.37;8.27;;;10.70;99.90;;;;;;8227261;28;20297;-64
2022/04/27 07:43:30;;;;;;;9.53;6.87;;;10.90;1.00;;;;;;8220261;28;20215;-64
2022/04/27 07:47:38;;;;;;;11.57;7.13;;;11.10;99.90;;;;;;8212757;28;20186;-63
2022/04/27 07:51:39;;;;;;;10.37;7.20;;;11.10;99.90;;;;;;8216798;28;20239;-64
2022/04/27 07:55:40;;;;;;;8.73;7.23;;;11.40;1.00;;;;;;8213288;28;20206;-67
2022/04/27 07:59:41;;;;;;;9.57;7.47;;;11.70;1.00;;;;;;8214553;28;20223;-66
2022/04/27 08:03:41;;;;;;;7.73;6.33;;;11.80;99.90;;;;;;8214546;28;20192;-64
2022/04/27 08:07:46;;;;;;;9.40;6.67;;;12.10;99.90;;;;;;8229214;28;20275;-66
2022/04/27 08:11:47;;;;;;;8.73;6.30;;;12.40;99.90;;;;;;8215405;28;20204;-64
2022/04/27 08:15:48;;;;;;;9.23;5.80;;;13.00;6.80;;;;;;8220288;28;20192;-64
2022/04/27 08:21:13;;;;;;;7.07;5.10;;;13.60;1.00;;;;;;8217848;28;20180;-64
2022/04/27 08:24:11;;;;;;;6.43;5.33;;;14.10;99.90;;;;;;8212813;28;20194;-64
2022/04/27 08:28:12;;;;;;;7.63;5.20;;;14.50;99.90;;;;;;8217310;28;20228;-65
2022/04/27 08:32:13;;;;;;;6.40;5.23;;;14.90;99.90;;;;;;8234230;28;20222;-63
2022/04/27 08:36:14;;;;;;;7.50;4.97;;;15.50;11.40;;;;;;8226995;28;20188;-64
2022/04/27 08:40:14;;;;;;;8.47;5.20;;;15.80;21.90;;;;;;8230904;28;20284;-64
2022/04/27 08:44:15;;;;;;;4.53;4.07;;;15.80;1.00;;;;;;8226595;28;20260;-63
2022/04/27 08:48:18;;;;;;;6.70;4.50;;;16.10;1.00;;;;;;8233068;28;20320;-67
2022/04/27 08:52:20;;;;;;;4.53;3.70;;;16.60;1.00;;;;;;8229144;28;20456;-65
2022/04/27 08:56:23;;;;;;;4.20;3.37;;;17.10;99.90;;;;;;8228660;28;20188;-64
2022/04/27 09:00:23;;;;;;;4.93;4.00;;;17.20;99.90;;;;;;8214678;28;20184;-64
2022/04/27 09:04:24;;;;;;;4.43;3.73;;;16.90;99.90;;;;;;8213156;28;20250;-64
2022/04/27 09:08:55;;;;;;;5.23;3.87;;;17.20;99.90;;;;;;8228446;28;20227;-64
2022/04/27 09:12:57;;;;;;;6.10;4.23;;;17.60;99.90;;;;;;8229138;28;20216;-64
2022/04/27 09:21:17;;;;;;;6.83;3.60;;;18.00;99.90;;;;;;8222197;28;20200;-67
2022/04/27 09:25:36;;;;;;;5.40;4.27;;;18.30;99.90;;;;;;8235557;28;20192;-63
2022/04/27 09:29:37;;;;;;;4.17;3.33;;;17.80;99.90;;;;;;8218749;28;20204;-64
2022/04/27 09:33:39;;;;;;;3.90;3.00;;;16.80;99.90;;;;;;8237384;28;20219;-64
2022/04/27 09:37:43;;;;;;;17.43;12.63;;;16.30;99.90;;;;;;8235430;28;20186;-63
2022/04/27 09:41:45;;;;;;;6.20;3.90;;;16.40;99.90;;;;;;8221082;28;20221;-65
2022/04/27 09:45:46;;;;;;;7.17;3.63;;;16.60;99.90;;;;;;8220626;28;20189;-66
2022/04/27 09:49:55;;;;;;;5.27;3.63;;;16.30;99.90;;;;;;8215045;28;20200;-61
2022/04/27 09:53:59;;;;;;;3.70;3.00;;;16.20;99.90;;;;;;8230464;28;20224;-66
2022/04/27 09:58:01;;;;;;;4.20;3.13;;;16.30;99.90;;;;;;8230138;28;20258;-63
2022/04/27 10:02:07;;;;;;;4.10;3.23;;;16.60;99.90;;;;;;8216759;28;20193;-63
2022/04/27 10:06:08;;;;;;;3.83;3.40;;;16.40;99.90;;;;;;8215283;28;20208;-66
2022/04/27 10:10:10;;;;;;;5.07;3.20;;;16.20;99.90;;;;;;8214707;28;20196;-63
2022/04/27 10:14:11;;;;;;;4.77;3.17;;;15.90;99.90;;;;;;8213772;28;20599;-64
2022/04/27 10:18:15;;;;;;;5.90;2.87;;;15.90;99.90;;;;;;8230312;28;20303;-64
2022/04/27 10:22:33;;;;;;;3.67;3.10;;;16.40;99.90;;;;;;8232739;28;20211;-63
2022/04/27 10:26:34;;;;;;;5.50;3.00;;;16.10;99.90;;;;;;8218229;28;20509;-62
2022/04/27 10:30:53;;;;;;;4.23;2.90;;;15.90;99.90;;;;;;8216589;28;20204;-65
2022/04/27 10:35:33;;;;;;;5.43;2.63;;;16.60;99.90;;;;;;8216119;28;20192;-63
2022/04/27 10:39:34;;;;;;;3.20;2.70;;;17.30;94.10;;;;;;8216453;28;20213;-63
2022/04/27 10:43:44;;;;;;;6.87;4.70;;;17.70;88.00;;;;;;8217969;28;20196;-63
2022/04/27 10:47:45;;;;;;;3.70;3.00;;;17.80;82.30;;;;;;8214586;28;20193;-65
2022/04/27 10:52:03;;;;;;;3.23;2.60;;;17.80;47.30;;;;;;8229358;28;20244;-62
2022/04/27 10:56:24;;;;;;;4.60;2.80;;;17.60;44.00;;;;;;8216980;28;20181;-65
2022/04/27 11:00:25;;;;;;;3.03;2.40;;;17.90;50.00;;;;;;8232848;28;20189;-63
2022/04/27 11:04:33;;;;;;;3.53;2.90;;;18.20;41.60;;;;;;8218417;28;20315;-62
2022/04/27 11:08:40;;;;;;;4.40;3.33;;;18.40;34.70;;;;;;8234455;28;20188;-63
2022/04/27 11:12:43;;;;;;;5.17;2.77;;;18.50;28.80;;;;;;8228513;28;20769;-64
2022/04/27 11:16:48;;;;;;;2.80;2.57;;;18.70;30.40;;;;;;8211904;28;20192;-63
2022/04/27 11:20:49;;;;;;;3.20;2.50;;;18.50;28.30;;;;;;8211656;28;20192;-63
2022/04/27 11:24:49;;;;;;;4.87;2.50;;;18.30;31.00;;;;;;8213251;28;20184;-65
2022/04/27 11:28:55;;;;;;;3.67;2.90;;;18.50;17.50;;;;;;8229211;28;20200;-64
2022/04/27 11:32:57;;;;;;;3.10;2.33;;;18.10;26.00;;;;;;8231184;28;20239;-63
2022/04/27 11:37:11;;;;;;;4.17;3.33;;;18.00;22.40;;;;;;8217534;28;20188;-65
2022/04/27 11:41:16;;;;;;;3.07;2.20;;;17.30;7.80;;;;;;8237433;28;20216;-65
2022/04/27 11:45:20;;;;;;;2.90;2.07;;;16.50;82.80;;;;;;8213493;28;20199;-65
2022/04/27 11:49:21;;;;;;;3.33;2.73;;;16.30;99.90;;;;;;8217302;28;20189;-62
2022/04/27 11:53:22;;;;;;;6.20;3.40;;;16.20;99.90;;;;;;8226935;28;20240;-62
2022/04/27 11:57:23;;;;;;;3.77;3.00;;;15.40;99.90;;;;;;8224453;28;20189;-63
2022/04/27 12:01:24;;;;;;;4.70;2.90;;;14.90;99.90;;;;;;8214343;28;20260;-64
2022/04/27 12:05:32;;;;;;;2.97;2.53;;;14.60;99.90;;;;;;8209801;28;20188;-62
2022/04/27 12:09:33;;;;;;;4.07;2.60;;;14.50;1.00;;;;;;8229307;28;20554;-63
2022/04/27 12:13:34;;;;;;;3.23;2.70;;;14.50;99.90;;;;;;8214110;28;20243;-64
2022/04/27 12:17:47;;;;;;;3.07;2.77;;;14.50;99.90;;;;;;8212820;28;20187;-63
2022/04/27 12:21:47;;;;;;;3.80;2.70;;;14.50;99.90;;;;;;8217151;28;20181;-66
2022/04/27 12:25:58;;;;;;;2.83;2.23;;;14.50;99.90;;;;;;8228689;28;20230;-66
2022/04/27 12:30:06;;;;;;;3.10;2.50;;;14.40;99.90;;;;;;8229814;28;20200;-65
2022/04/27 12:37:29;;;;;;;4.47;2.77;;;14.50;99.90;;;;;;8213360;28;20212;-64
2022/04/27 12:38:30;;;;;;;5.27;2.40;;;14.60;99.90;;;;;;8220099;28;20239;-64
2022/04/27 12:42:37;;;;;;;3.00;2.53;;;14.70;99.90;;;;;;8213852;28;20188;-68
2022/04/27 12:46:57;;;;;;;3.50;2.53;;;14.70;99.90;;;;;;8228716;28;20195;-64
2022/04/27 12:50:59;;;;;;;2.33;2.10;;;14.80;99.90;;;;;;8214995;28;20211;-66
2022/04/27 12:55:08;;;;;;;3.03;2.20;;;15.10;99.90;;;;;;8234095;28;20192;-64
2022/04/27 12:59:11;;;;;;;4.77;2.70;;;15.30;99.90;;;;;;8221112;28;20275;-65
2022/04/27 13:03:12;;;;;;;4.33;2.37;;;15.50;99.90;;;;;;8219949;28;20199;-63
2022/04/27 13:07:13;;;;;;;2.63;2.43;;;15.70;99.90;;;;;;8219513;28;20185;-63
2022/04/27 13:15:34;;;;;;;3.50;2.70;;;16.40;99.90;;;;;;8219585;28;20311;-64
2022/04/27 13:19:35;;;;;;;2.90;2.13;;;16.80;99.90;;;;;;8214568;28;20180;-67
2022/04/27 13:23:36;;;;;;;2.90;1.83;;;17.20;99.90;;;;;;8220306;28;20825;-64
2022/04/27 13:27:37;;;;;;;2.53;2.13;;;18.00;99.90;;;;;;8220661;28;20192;-63
2022/04/27 13:31:37;;;;;;;3.07;2.13;;;18.40;99.90;;;;;;8221363;28;20223;-64
2022/04/27 13:35:38;;;;;;;2.10;1.90;;;18.80;98.60;;;;;;8221829;28;20189;-64
2022/04/27 13:39:39;;;;;;;4.30;2.00;;;18.90;71.10;;;;;;8218464;28;20542;-64
2022/04/27 13:43:40;;;;;;;2.90;2.40;;;19.10;58.60;;;;;;8214895;28;20307;-64
2022/04/27 13:47:41;;;;;;;2.90;2.00;;;19.40;47.30;;;;;;8218946;28;20196;-64
2022/04/27 13:51:42;;;;;;;4.30;2.10;;;19.60;33.10;;;;;;8235289;28;20212;-65
2022/04/27 13:55:42;;;;;;;5.27;3.20;;;19.80;30.90;;;;;;8216241;28;20382;-63
2022/04/27 13:59:43;;;;;;;4.67;2.67;;;20.00;22.00;;;;;;8212115;28;20283;-64
2022/04/27 14:03:45;;;;;;;2.13;1.70;;;19.80;17.60;;;;;;8230048;28;20216;-64
2022/04/27 14:07:46;;;;;;;2.83;2.00;;;19.70;21.60;;;;;;8214919;28;20189;-65
2022/04/27 14:20:25;;;;;;;2.37;1.60;;;19.00;1.00;;;;;;8212829;28;20655;-65
2022/04/27 14:24:27;;;;;;;3.60;2.10;;;18.60;1.00;;;;;;8217143;28;20307;-67
2022/04/27 14:28:28;;;;;;;2.27;1.83;;;18.40;1.00;;;;;;8219637;28;20279;-64
2022/04/27 14:32:32;;;;;;;2.13;1.70;;;17.60;2.90;;;;;;8233007;28;20185;-65
2022/04/27 14:36:33;;;;;;;5.07;3.10;;;17.00;73.10;;;;;;8233916;28;20181;-64
2022/04/27 14:40:34;;;;;;;3.50;2.63;;;16.80;93.70;;;;;;8222694;28;20215;-65
2022/04/27 14:44:35;;;;;;;3.07;2.50;;;16.30;99.90;;;;;;8232373;28;20209;-63
2022/04/27 14:48:40;;;;;;;2.40;2.20;;;15.90;99.90;;;;;;8214861;28;20288;-65
2022/04/27 14:52:41;;;;;;;2.93;2.30;;;15.50;99.90;;;;;;8218619;28;20235;-64
2022/04/27 14:56:42;;;;;;;2.90;2.50;;;15.60;99.90;;;;;;8214809;28;20189;-65
2022/04/27 15:00:44;;;;;;;2.97;2.33;;;15.70;99.90;;;;;;8216785;28;20189;-66
2022/04/27 15:04:45;;;;;;;4.10;2.90;;;15.80;99.90;;;;;;8218603;28;20228;-63
2022/04/27 15:08:45;;;;;;;3.50;3.00;;;15.90;99.90;;;;;;8233417;28;20185;-65
2022/04/27 15:12:46;;;;;;;3.60;2.70;;;16.40;99.90;;;;;;8228920;28;20197;-63
2022/04/27 15:16:47;;;;;;;3.97;2.97;;;16.80;99.90;;;;;;8231337;28;20192;-64
2022/04/27 15:25:15;;;;;;;2.87;2.47;;;16.40;99.90;;;;;;8217908;28;20220;-62
2022/04/27 15:29:16;;;;;;;5.07;3.67;;;16.40;99.90;;;;;;8216603;28;20197;-66
2022/04/27 15:33:17;;;;;;;15.10;8.93;;;16.30;99.90;;;;;;8230596;28;20199;-62
2022/04/27 15:37:20;;;;;;;4.47;2.60;;;16.60;95.30;;;;;;8213737;28;20216;-62
2022/04/27 15:41:21;;;;;;;3.17;2.80;;;16.70;91.70;;;;;;8231295;28;20235;-62
2022/04/27 15:45:21;;;;;;;3.27;2.10;;;16.70;95.50;;;;;;8213118;28;20305;-64
2022/04/27 15:49:22;;;;;;;2.47;2.03;;;16.70;97.20;;;;;;8216562;28;20248;-63
2022/04/27 15:53:23;;;;;;;3.60;2.83;;;16.70;99.90;;;;;;8217305;28;20199;-64
2022/04/27 15:57:24;;;;;;;4.40;2.80;;;16.80;90.40;;;;;;8227671;28;20192;-65
2022/04/27 16:01:25;;;;;;;7.37;2.63;;;16.50;96.40;;;;;;8230313;28;20211;-63
2022/04/27 16:05:26;;;;;;;2.57;1.90;;;16.30;55.80;;;;;;8218404;28;20432;-63
2022/04/27 16:09:27;;;;;;;3.83;2.00;;;16.20;59.60;;;;;;8213354;28;20200;-66
2022/04/27 16:13:27;;;;;;;2.67;1.93;;;16.30;47.90;;;;;;8230848;28;20277;-63
2022/04/27 16:17:28;;;;;;;2.60;1.73;;;16.60;38.70;;;;;;8230019;28;20199;-63
2022/04/27 16:25:49;;;;;;;2.33;1.83;;;17.10;30.50;;;;;;8213706;28;20200;-65
2022/04/27 16:29:50;;;;;;;1.60;1.47;;;17.30;34.40;;;;;;8217500;28;20209;-65
2022/04/27 16:33:51;;;;;;;2.37;1.73;;;17.40;44.40;;;;;;8237322;28;20219;-63
2022/04/27 16:37:52;;;;;;;2.17;1.80;;;17.40;84.70;;;;;;8220064;28;20193;-64
2022/04/27 16:41:54;;;;;;;2.07;1.57;;;17.40;99.90;;;;;;8220454;28;20591;-64
2022/04/27 16:45:54;;;;;;;1.57;1.33;;;17.30;99.90;;;;;;8217768;28;20193;-67
2022/04/27 16:49:55;;;;;;;2.07;1.67;;;17.20;99.90;;;;;;8215621;28;20231;-65
2022/04/27 16:53:56;;;;;;;1.50;1.40;;;17.00;99.90;;;;;;8220524;28;20196;-62
2022/04/27 16:57:57;;;;;;;1.40;1.30;;;16.90;99.90;;;;;;8217575;28;20196;-62
2022/04/27 17:01:58;;;;;;;1.40;1.30;;;16.80;99.90;;;;;;8225701;28;20225;-64
2022/04/27 17:06:02;;;;;;;3.27;2.23;;;16.60;99.90;;;;;;8235527;28;20188;-63
2022/04/27 17:10:03;;;;;;;3.17;2.83;;;16.40;99.90;;;;;;8238331;28;20276;-63
2022/04/27 17:14:05;;;;;;;4.73;3.80;;;16.20;99.90;;;;;;8218247;28;20283;-65
2022/04/27 17:18:08;;;;;;;4.30;3.90;;;16.00;1.00;;;;;;8234984;28;20184;-63
2022/04/27 17:22:09;;;;;;;3.50;3.20;;;15.80;1.00;;;;;;8232461;28;20314;-63
2022/04/27 17:30:29;;;;;;;3.07;2.53;;;15.40;91.30;;;;;;8216941;28;20212;-63
2022/04/27 17:34:30;;;;;;;3.60;3.13;;;15.10;99.90;;;;;;8229833;28;20188;-65
2022/04/27 17:38:36;;;;;;;6.83;3.80;;;14.80;1.00;;;;;;8235554;28;20231;-63
2022/04/27 17:42:38;;;;;;;4.83;3.27;;;14.60;1.00;;;;;;8218011;28;20247;-62
2022/04/27 17:46:38;;;;;;;4.37;3.13;;;14.40;1.00;;;;;;8219203;28;20189;-64
2022/04/27 17:50:40;;;;;;;6.57;4.10;;;14.20;1.00;;;;;;8216109;28;20185;-65
2022/04/27 17:54:41;;;;;;;5.00;3.73;;;14.30;1.00;;;;;;8234418;28;20193;-63
2022/04/27 17:58:42;;;;;;;4.03;3.33;;;14.50;1.00;;;;;;8232036;28;20195;-63
2022/04/27 18:02:44;;;;;;;4.33;3.00;;;14.50;99.90;;;;;;8219785;28;20212;-64
2022/04/27 18:06:45;;;;;;;4.27;3.40;;;14.40;99.90;;;;;;8226864;28;20188;-65
2022/04/27 18:10:49;;;;;;;6.30;3.57;;;14.10;99.90;;;;;;8231170;28;20216;-67
2022/04/27 18:14:50;;;;;;;4.07;3.47;;;13.90;99.90;;;;;;8229058;28;20192;-65
2022/04/27 18:18:50;;;;;;;5.40;4.17;;;13.60;1.00;;;;;;8219608;28;20235;-63
2022/04/27 18:22:51;;;;;;;6.67;5.67;;;13.50;1.00;;;;;;8220048;28;20224;-65
2022/04/27 18:26:52;;;;;;;23.67;14.80;;;13.30;1.00;;;;;;8214240;28;20211;-63
2022/04/27 18:30:58;;;;;;;34.10;21.43;;;13.20;1.00;;;;;;8233180;28;20273;-64
2022/04/27 18:34:59;;;;;;;31.67;21.67;;;13.10;1.00;;;;;;8211320;28;20247;-65
2022/04/27 18:39:02;;;;;;;24.63;17.17;;;13.00;1.00;;;;;;8214424;28;20218;-68
2022/04/27 18:43:04;;;;;;;19.27;12.60;;;12.90;99.90;;;;;;8213377;28;20208;-66
2022/04/27 18:51:24;;;;;;;7.77;6.30;;;12.60;99.90;;;;;;8215561;28;20244;-66
2022/04/27 18:55:25;;;;;;;5.40;4.30;;;12.30;1.00;;;;;;8230676;28;20188;-66
2022/04/27 18:59:26;;;;;;;6.03;5.07;;;12.10;99.90;;;;;;8213854;28;20184;-66
2022/04/27 19:03:26;;;;;;;5.93;4.33;;;11.80;10.10;;;;;;8214912;28;20269;-67
2022/04/27 19:07:27;;;;;;;6.33;4.80;;;11.60;99.90;;;;;;8227873;28;20201;-67
2022/04/27 19:11:29;;;;;;;7.37;5.13;;;11.40;99.90;;;;;;8229453;28;20207;-66
2022/04/27 19:15:30;;;;;;;11.97;9.67;;;11.20;1.00;;;;;;8225769;28;20203;-67
2022/04/27 19:19:33;;;;;;;8.33;7.10;;;11.00;1.00;;;;;;8229351;28;20677;-68
2022/04/27 19:23:34;;;;;;;8.43;7.00;;;10.80;1.00;;;;;;8215026;28;20246;-66
2022/04/27 19:27:35;;;;;;;8.03;6.10;;;10.50;1.00;;;;;;8212981;28;20186;-66
2022/04/27 19:31:36;;;;;;;6.90;5.83;;;10.40;16.60;;;;;;8231205;28;20195;-66
2022/04/27 19:35:37;;;;;;;8.20;6.27;;;10.20;74.10;;;;;;8230258;28;20197;-70
2022/04/27 19:39:39;;;;;;;8.37;6.30;;;10.10;89.20;;;;;;8210789;28;20217;-67
2022/04/27 19:43:39;;;;;;;8.67;6.40;;;10.10;99.90;;;;;;8211488;28;20216;-67
2022/04/27 19:47:40;;;;;;;9.30;6.67;;;10.00;99.90;;;;;;8203366;28;20191;-67
2022/04/27 19:51:41;;;;;;;7.80;5.87;;;10.00;99.90;;;;;;8200583;28;20264;-67
2022/04/27 19:55:42;;;;;;;8.80;6.23;;;9.80;99.90;;;;;;8225846;28;20217;-70
2022/04/27 19:59:43;;;;;;;7.93;7.07;;;9.70;99.90;;;;;;8226667;28;20192;-67
2022/04/27 20:03:46;;;;;;;8.63;6.63;;;9.50;1.00;;;;;;8214092;28;20235;-66
2022/04/27 20:07:47;;;;;;;7.87;6.53;;;9.30;92.70;;;;;;8209258;28;20188;-67
2022/04/27 20:11:48;;;;;;;8.40;6.67;;;9.00;99.90;;;;;;8206192;28;20236;-67
2022/04/27 20:15:48;;;;;;;9.10;7.17;;;8.80;1.00;;;;;;8209728;28;20276;-67
2022/04/27 20:19:50;;;;;;;9.30;7.17;;;8.60;99.90;;;;;;8215361;28;20216;-67
2022/04/27 20:23:51;;;;;;;9.37;8.17;;;8.40;99.90;;;;;;8211756;28;20217;-69
2022/04/27 20:27:54;;;;;;;10.07;8.53;;;8.20;1.00;;;;;;8211721;28;20443;-67
2022/04/27 20:31:56;;;;;;;9.23;6.17;;;8.00;1.00;;;;;;8210394;28;20193;-66
2022/04/27 20:35:57;;;;;;;7.90;6.60;;;7.90;99.90;;;;;;8228195;28;20185;-67
2022/04/27 20:39:59;;;;;;;7.40;5.80;;;7.70;99.90;;;;;;8211476;28;20209;-67
2022/04/27 20:44:00;;;;;;;8.07;5.87;;;7.60;4.20;;;;;;8208986;28;20263;-66
2022/04/27 20:48:03;;;;;;;8.17;5.87;;;7.40;99.90;;;;;;8215272;28;20177;-63
2022/04/27 20:52:04;;;;;;;7.57;6.53;;;7.30;1.00;;;;;;8213252;28;20208;-65
2022/04/27 20:56:06;;;;;;;7.90;6.00;;;7.20;1.00;;;;;;8228430;28;20196;-66
2022/04/27 21:00:11;;;;;;;7.10;5.07;;;7.00;1.00;;;;;;8212616;28;20188;-65
2022/04/27 21:04:12;;;;;;;9.67;6.40;;;6.90;99.90;;;;;;8226056;28;20212;-66
2022/04/27 21:08:13;;;;;;;8.43;6.27;;;6.70;99.90;;;;;;8229146;28;20193;-66
2022/04/27 21:12:13;;;;;;;6.10;5.10;;;6.60;1.00;;;;;;8209861;28;20432;-66
2022/04/27 21:16:15;;;;;;;6.00;4.67;;;6.40;1.00;;;;;;8234299;28;20216;-67
2022/04/27 21:20:16;;;;;;;7.10;5.33;;;6.30;1.00;;;;;;8231992;28;20227;-66
2022/04/27 21:24:18;;;;;;;10.37;6.63;;;6.20;58.70;;;;;;8232754;28;20219;-66
2022/04/27 21:28:19;;;;;;;8.23;5.83;;;6.10;99.90;;;;;;8229734;28;20196;-67
2022/04/27 21:32:20;;;;;;;6.67;4.93;;;6.00;57.20;;;;;;8230088;28;20185;-66
2022/04/27 21:36:23;;;;;;;6.17;4.40;;;5.90;34.10;;;;;;8213580;28;20208;-68
2022/04/27 21:40:24;;;;;;;4.50;3.50;;;5.80;6.40;;;;;;8218745;28;20315;-66
2022/04/27 21:44:25;;;;;;;4.60;3.40;;;5.70;99.90;;;;;;8213856;28;20208;-66
2022/04/27 21:48:26;;;;;;;4.07;3.30;;;5.60;99.90;;;;;;8231922;28;20290;-65
2022/04/27 21:52:27;;;;;;;4.33;3.10;;;5.50;99.90;;;;;;8215021;28;20231;-67
2022/04/27 21:56:29;;;;;;;4.93;3.23;;;5.40;99.90;;;;;;8232801;28;20192;-66